Terminal Aerodrome Forecast
Issued by NWS

Home | Current Version | Previous Version | Text Only | Print | Product List | Glossary On
Versions: 1 2 3 4 5 6 7 8 9 10 11 12 13 14 15 16 17 18 19
000
FTUS45 KSLC 192340
TAFSGU
TAF
KSGU 192340Z 2000/2024 22020G28KT P6SM SCT080 BKN120
     FM200200 22010KT P6SM VCSH SCT040 BKN080
     FM200900 23010KT P6SM -RA SCT020 BKN040
     FM201500 26012G20KT P6SM VCSH SCT040 BKN080
     FM201900 28020G27KT P6SM VCSH SCT050 BKN100=

USA.gov is the U.S. government's official web portal to all federal, state and local government web resources and services.